sensor_id;sensor_type;location;lat;lon;timestamp;pressure;altitude;pressure_sealevel;temperature;humidity
71697;BME280;68167;59.120;37.898;2023-04-08T00:00:29;101470.97;;;1.81;42.36
71697;BME280;68167;59.120;37.898;2023-04-08T00:02:55;101495.97;;;1.93;42.31
71697;BME280;68167;59.120;37.898;2023-04-08T00:05:22;101422.56;;;1.41;42.58
71697;BME280;68167;59.120;37.898;2023-04-08T00:07:48;101496.56;;;1.79;42.38
71697;BME280;68167;59.120;37.898;2023-04-08T00:10:14;101437.97;;;1.44;42.13
71697;BME280;68167;59.120;37.898;2023-04-08T00:12:41;101488.31;;;1.74;42.15
71697;BME280;68167;59.120;37.898;2023-04-08T00:15:07;101407.91;;;1.30;42.72
71697;BME280;68167;59.120;37.898;2023-04-08T00:17:34;101502.13;;;1.76;42.57
71697;BME280;68167;59.120;37.898;2023-04-08T00:20:01;101476.50;;;1.70;42.80
71697;BME280;68167;59.120;37.898;2023-04-08T00:22:27;101469.09;;;1.65;42.70
71697;BME280;68167;59.120;37.898;2023-04-08T00:24:53;101485.69;;;1.74;42.85
71697;BME280;68167;59.120;37.898;2023-04-08T00:27:20;101479.78;;;1.72;42.89
71697;BME280;68167;59.120;37.898;2023-04-08T00:29:46;101496.41;;;1.80;42.50
71697;BME280;68167;59.120;37.898;2023-04-08T00:32:13;101470.06;;;1.64;43.03
71697;BME280;68167;59.120;37.898;2023-04-08T00:34:39;101497.19;;;1.73;43.05
71697;BME280;68167;59.120;37.898;2023-04-08T00:37:05;101501.13;;;1.77;43.13
71697;BME280;68167;59.120;37.898;2023-04-08T00:39:32;101478.44;;;1.68;43.47
71697;BME280;68167;59.120;37.898;2023-04-08T00:41:59;101417.09;;;1.26;43.05
71697;BME280;68167;59.120;37.898;2023-04-08T00:44:27;101493.56;;;1.74;43.30
71697;BME280;68167;59.120;37.898;2023-04-08T00:46:53;101500.47;;;1.75;43.18
71697;BME280;68167;59.120;37.898;2023-04-08T00:49:20;101440.56;;;1.36;43.00
71697;BME280;68167;59.120;37.898;2023-04-08T00:51:46;101471.16;;;1.53;42.95
71697;BME280;68167;59.120;37.898;2023-04-08T00:54:12;101492.03;;;1.63;43.04
71697;BME280;68167;59.120;37.898;2023-04-08T00:56:39;101405.53;;;1.11;43.48
71697;BME280;68167;59.120;37.898;2023-04-08T00:59:05;101418.84;;;1.18;43.50
71697;BME280;68167;59.120;37.898;2023-04-08T01:07:17;101481.50;;;1.55;42.88
71697;BME280;68167;59.120;37.898;2023-04-08T01:09:53;101474.25;;;1.49;43.02
71697;BME280;68167;59.120;37.898;2023-04-08T01:12:29;101501.19;;;1.59;43.11
71697;BME280;68167;59.120;37.898;2023-04-08T01:17:29;101442.91;;;1.13;43.56
71697;BME280;68167;59.120;37.898;2023-04-08T01:19:59;101425.31;;;1.06;43.17
71697;BME280;68167;59.120;37.898;2023-04-08T01:25:19;101409.53;;;0.97;42.89
71697;BME280;68167;59.120;37.898;2023-04-08T01:27:48;101489.63;;;1.44;43.50
71697;BME280;68167;59.120;37.898;2023-04-08T01:30:17;101488.97;;;1.42;43.56
71697;BME280;68167;59.120;37.898;2023-04-08T01:32:45;101503.06;;;1.41;43.51
71697;BME280;68167;59.120;37.898;2023-04-08T01:35:14;101420.84;;;0.98;43.59
71697;BME280;68167;59.120;37.898;2023-04-08T01:37:41;101443.00;;;1.04;43.55
71697;BME280;68167;59.120;37.898;2023-04-08T01:40:09;101489.06;;;1.32;43.67
71697;BME280;68167;59.120;37.898;2023-04-08T01:42:37;101475.25;;;1.22;44.24
71697;BME280;68167;59.120;37.898;2023-04-08T01:45:05;101411.00;;;0.74;44.35
71697;BME280;68167;59.120;37.898;2023-04-08T01:47:33;101488.66;;;1.19;44.74
71697;BME280;68167;59.120;37.898;2023-04-08T01:50:01;101478.72;;;1.05;44.48
71697;BME280;68167;59.120;37.898;2023-04-08T01:52:29;101471.78;;;0.95;44.85
71697;BME280;68167;59.120;37.898;2023-04-08T01:54:55;101414.63;;;0.55;44.71
71697;BME280;68167;59.120;37.898;2023-04-08T01:57:26;101359.41;;;0.13;44.93
71697;BME280;68167;59.120;37.898;2023-04-08T01:59:57;101425.72;;;0.49;45.49
71697;BME280;68167;59.120;37.898;2023-04-08T02:02:26;101472.91;;;0.75;45.10
71697;BME280;68167;59.120;37.898;2023-04-08T02:04:53;101481.44;;;0.77;45.26
71697;BME280;68167;59.120;37.898;2023-04-08T02:07:20;101494.56;;;0.77;45.85
71697;BME280;68167;59.120;37.898;2023-04-08T02:09:50;101489.00;;;0.80;46.15
71697;BME280;68167;59.120;37.898;2023-04-08T02:12:16;101444.06;;;0.49;45.73
71697;BME280;68167;59.120;37.898;2023-04-08T02:14:43;101413.06;;;0.27;45.94
71697;BME280;68167;59.120;37.898;2023-04-08T02:19:58;101470.31;;;0.57;46.10
71697;BME280;68167;59.120;37.898;2023-04-08T02:22:30;101492.22;;;0.74;45.92
71697;BME280;68167;59.120;37.898;2023-04-08T02:25:03;101481.91;;;0.73;46.34
71697;BME280;68167;59.120;37.898;2023-04-08T02:27:34;101450.78;;;0.52;46.10
71697;BME280;68167;59.120;37.898;2023-04-08T02:30:03;101470.06;;;0.69;46.50
71697;BME280;68167;59.120;37.898;2023-04-08T02:32:34;101491.09;;;0.77;46.47
71697;BME280;68167;59.120;37.898;2023-04-08T02:35:03;101485.19;;;0.75;46.55
71697;BME280;68167;59.120;37.898;2023-04-08T02:37:31;101493.06;;;0.75;46.74
71697;BME280;68167;59.120;37.898;2023-04-08T02:39:57;101484.66;;;0.71;46.81
71697;BME280;68167;59.120;37.898;2023-04-08T02:42:24;101424.59;;;0.34;46.32
71697;BME280;68167;59.120;37.898;2023-04-08T02:44:52;101434.75;;;0.37;46.94
71697;BME280;68167;59.120;37.898;2023-04-08T02:47:18;101484.00;;;0.69;46.31
71697;BME280;68167;59.120;37.898;2023-04-08T02:49:45;101483.16;;;0.69;46.90
71697;BME280;68167;59.120;37.898;2023-04-08T02:52:12;101422.13;;;0.32;47.08
71697;BME280;68167;59.120;37.898;2023-04-08T02:54:38;101426.91;;;0.37;47.14
71697;BME280;68167;59.120;37.898;2023-04-08T02:57:04;101476.81;;;0.71;46.72
71697;BME280;68167;59.120;37.898;2023-04-08T02:59:31;101490.97;;;0.78;46.80
71697;BME280;68167;59.120;37.898;2023-04-08T03:01:57;101462.34;;;0.67;46.70
71697;BME280;68167;59.120;37.898;2023-04-08T03:04:23;101480.84;;;0.83;47.14
71697;BME280;68167;59.120;37.898;2023-04-08T03:06:50;101417.84;;;0.49;46.51
71697;BME280;68167;59.120;37.898;2023-04-08T03:09:16;101476.28;;;0.85;46.69
71697;BME280;68167;59.120;37.898;2023-04-08T03:11:42;101462.44;;;0.75;47.20
71697;BME280;68167;59.120;37.898;2023-04-08T03:14:09;101468.56;;;0.84;46.51
71697;BME280;68167;59.120;37.898;2023-04-08T03:16:36;101448.50;;;0.75;46.46
71697;BME280;68167;59.120;37.898;2023-04-08T03:19:02;101463.47;;;0.82;46.61
71697;BME280;68167;59.120;37.898;2023-04-08T03:21:28;101469.75;;;0.89;46.47
71697;BME280;68167;59.120;37.898;2023-04-08T03:23:57;101444.75;;;0.77;46.39
71697;BME280;68167;59.120;37.898;2023-04-08T03:26:23;101444.97;;;0.84;46.84
71697;BME280;68167;59.120;37.898;2023-04-08T03:28:52;101389.56;;;0.53;46.49
71697;BME280;68167;59.120;37.898;2023-04-08T03:31:18;101461.50;;;1.02;46.88
71697;BME280;68167;59.120;37.898;2023-04-08T03:33:46;101412.78;;;0.74;46.38
71697;BME280;68167;59.120;37.898;2023-04-08T03:36:12;101341.25;;;0.29;46.88
71697;BME280;68167;59.120;37.898;2023-04-08T03:38:39;101424.53;;;0.87;46.74
71697;BME280;68167;59.120;37.898;2023-04-08T03:41:05;101462.59;;;1.17;46.73
71697;BME280;68167;59.120;37.898;2023-04-08T03:43:32;101387.41;;;0.74;46.81
71697;BME280;68167;59.120;37.898;2023-04-08T03:45:58;101446.81;;;1.09;46.45
71697;BME280;68167;59.120;37.898;2023-04-08T03:48:24;101453.25;;;1.15;46.50
71697;BME280;68167;59.120;37.898;2023-04-08T03:50:51;101462.97;;;1.22;46.76
71697;BME280;68167;59.120;37.898;2023-04-08T03:53:17;101467.91;;;1.25;46.89
71697;BME280;68167;59.120;37.898;2023-04-08T03:55:44;101475.13;;;1.31;46.39
71697;BME280;68167;59.120;37.898;2023-04-08T03:58:10;101476.09;;;1.30;46.58
71697;BME280;68167;59.120;37.898;2023-04-08T04:00:37;101289.19;;;0.09;46.93
71697;BME280;68167;59.120;37.898;2023-04-08T04:03:03;101470.75;;;1.40;46.65
71697;BME280;68167;59.120;37.898;2023-04-08T04:05:29;101393.66;;;0.99;46.73
71697;BME280;68167;59.120;37.898;2023-04-08T04:07:56;101463.38;;;1.44;46.70
71697;BME280;68167;59.120;37.898;2023-04-08T04:10:23;101457.53;;;1.50;46.34
71697;BME280;68167;59.120;37.898;2023-04-08T04:12:49;101447.03;;;1.50;46.65
71697;BME280;68167;59.120;37.898;2023-04-08T04:15:16;101463.53;;;1.68;46.37
71697;BME280;68167;59.120;37.898;2023-04-08T04:17:42;101469.28;;;1.72;45.84
71697;BME280;68167;59.120;37.898;2023-04-08T04:20:09;101467.00;;;1.77;46.30
71697;BME280;68167;59.120;37.898;2023-04-08T04:22:35;101401.09;;;1.46;46.11
71697;BME280;68167;59.120;37.898;2023-04-08T04:25:02;101421.00;;;1.56;45.79
71697;BME280;68167;59.120;37.898;2023-04-08T04:27:29;101437.63;;;1.73;45.79
71697;BME280;68167;59.120;37.898;2023-04-08T04:29:55;101479.22;;;2.02;45.84
71697;BME280;68167;59.120;37.898;2023-04-08T04:32:22;101463.63;;;2.01;45.97
71697;BME280;68167;59.120;37.898;2023-04-08T04:34:48;101379.81;;;1.57;45.40
71697;BME280;68167;59.120;37.898;2023-04-08T04:37:14;101388.41;;;1.67;45.57
71697;BME280;68167;59.120;37.898;2023-04-08T04:39:41;101460.75;;;2.20;45.62
71697;BME280;68167;59.120;37.898;2023-04-08T04:42:07;101474.41;;;2.31;45.49
71697;BME280;68167;59.120;37.898;2023-04-08T04:44:33;101467.19;;;2.34;45.42
71697;BME280;68167;59.120;37.898;2023-04-08T04:47:00;101466.53;;;2.40;45.00
71697;BME280;68167;59.120;37.898;2023-04-08T04:49:26;101469.69;;;2.51;45.56
71697;BME280;68167;59.120;37.898;2023-04-08T04:51:52;101474.44;;;2.64;45.40
71697;BME280;68167;59.120;37.898;2023-04-08T04:54:19;101450.97;;;2.54;45.14
71697;BME280;68167;59.120;37.898;2023-04-08T04:56:45;101470.84;;;2.73;45.16
71697;BME280;68167;59.120;37.898;2023-04-08T04:59:12;101457.69;;;2.73;44.82
71697;BME280;68167;59.120;37.898;2023-04-08T05:01:38;101461.81;;;2.92;44.82
71697;BME280;68167;59.120;37.898;2023-04-08T05:04:06;101469.69;;;3.00;44.20
71697;BME280;68167;59.120;37.898;2023-04-08T05:06:32;101467.38;;;3.05;44.13
71697;BME280;68167;59.120;37.898;2023-04-08T05:08:58;101416.59;;;2.88;43.70
71697;BME280;68167;59.120;37.898;2023-04-08T05:11:25;101463.88;;;3.29;43.83
71697;BME280;68167;59.120;37.898;2023-04-08T05:13:51;101469.78;;;3.39;43.22
71697;BME280;68167;59.120;37.898;2023-04-08T05:16:17;101469.75;;;3.47;43.12
71697;BME280;68167;59.120;37.898;2023-04-08T05:18:44;101492.59;;;3.63;42.88
71697;BME280;68167;59.120;37.898;2023-04-08T05:21:10;101484.34;;;3.66;42.86
71697;BME280;68167;59.120;37.898;2023-04-08T05:23:37;101475.28;;;3.77;42.51
71697;BME280;68167;59.120;37.898;2023-04-08T05:26:06;101475.94;;;3.79;42.62
71697;BME280;68167;59.120;37.898;2023-04-08T05:28:34;101472.13;;;3.81;41.86
71697;BME280;68167;59.120;37.898;2023-04-08T05:31:00;101474.91;;;3.88;42.13
71697;BME280;68167;59.120;37.898;2023-04-08T05:33:26;101481.06;;;4.03;42.03
71697;BME280;68167;59.120;37.898;2023-04-08T05:35:53;101472.53;;;4.01;42.16
71697;BME280;68167;59.120;37.898;2023-04-08T05:38:19;101490.53;;;4.20;41.76
71697;BME280;68167;59.120;37.898;2023-04-08T05:40:46;101412.22;;;3.83;42.00
71697;BME280;68167;59.120;37.898;2023-04-08T05:43:12;101479.66;;;4.23;41.79
71697;BME280;68167;59.120;37.898;2023-04-08T05:45:38;101490.59;;;4.43;41.90
71697;BME280;68167;59.120;37.898;2023-04-08T05:48:04;101464.22;;;4.43;40.52
71697;BME280;68167;59.120;37.898;2023-04-08T05:50:32;101375.63;;;3.88;40.81
71697;BME280;68167;59.120;37.898;2023-04-08T05:52:59;101495.97;;;4.73;40.90
71697;BME280;68167;59.120;37.898;2023-04-08T05:55:26;101414.38;;;4.34;41.23
71697;BME280;68167;59.120;37.898;2023-04-08T05:57:52;101477.56;;;4.87;40.73
71697;BME280;68167;59.120;37.898;2023-04-08T06:00:19;101487.81;;;5.05;41.12
71697;BME280;68167;59.120;37.898;2023-04-08T06:02:46;101490.22;;;5.15;40.57
71697;BME280;68167;59.120;37.898;2023-04-08T06:05:12;101494.84;;;5.27;39.60
71697;BME280;68167;59.120;37.898;2023-04-08T06:07:39;101494.31;;;5.32;40.01
71697;BME280;68167;59.120;37.898;2023-04-08T06:10:07;101480.09;;;5.33;39.89
71697;BME280;68167;59.120;37.898;2023-04-08T06:12:36;101475.56;;;5.42;39.75
71697;BME280;68167;59.120;37.898;2023-04-08T06:15:06;101486.97;;;5.57;39.39
71697;BME280;68167;59.120;37.898;2023-04-08T06:17:36;101481.97;;;5.62;39.28
71697;BME280;68167;59.120;37.898;2023-04-08T06:20:04;101498.53;;;5.71;39.09
71697;BME280;68167;59.120;37.898;2023-04-08T06:22:31;101468.56;;;5.63;39.32
71697;BME280;68167;59.120;37.898;2023-04-08T06:24:57;101411.91;;;5.37;39.11
71697;BME280;68167;59.120;37.898;2023-04-08T06:27:24;101481.31;;;5.89;38.98
71697;BME280;68167;59.120;37.898;2023-04-08T06:29:50;101478.94;;;5.94;39.18
71697;BME280;68167;59.120;37.898;2023-04-08T06:32:17;101426.75;;;5.67;38.31
71697;BME280;68167;59.120;37.898;2023-04-08T06:34:47;101432.66;;;5.84;38.38
71697;BME280;68167;59.120;37.898;2023-04-08T06:37:13;101469.88;;;6.18;38.48
71697;BME280;68167;59.120;37.898;2023-04-08T06:39:39;101376.75;;;5.66;38.08
71697;BME280;68167;59.120;37.898;2023-04-08T06:42:06;101498.09;;;6.47;38.09
71697;BME280;68167;59.120;37.898;2023-04-08T06:44:51;101407.84;;;6.00;37.41
71697;BME280;68167;59.120;37.898;2023-04-08T06:47:17;101444.34;;;6.25;37.52
71697;BME280;68167;59.120;37.898;2023-04-08T06:49:44;101479.81;;;6.52;37.04
71697;BME280;68167;59.120;37.898;2023-04-08T06:52:11;101500.53;;;6.70;37.48
71697;BME280;68167;59.120;37.898;2023-04-08T06:54:37;101485.94;;;6.74;37.07
71697;BME280;68167;59.120;37.898;2023-04-08T06:57:04;101422.56;;;6.45;36.99
71697;BME280;68167;59.120;37.898;2023-04-08T06:59:30;101479.00;;;6.94;36.63
71697;BME280;68167;59.120;37.898;2023-04-08T07:01:57;101426.84;;;6.67;36.92
71697;BME280;68167;59.120;37.898;2023-04-08T07:04:23;101495.44;;;7.18;37.14
71697;BME280;68167;59.120;37.898;2023-04-08T07:06:49;101434.56;;;6.90;36.97
71697;BME280;68167;59.120;37.898;2023-04-08T07:09:16;101472.44;;;7.18;36.02
71697;BME280;68167;59.120;37.898;2023-04-08T07:11:43;101470.91;;;7.31;36.09
71697;BME280;68167;59.120;37.898;2023-04-08T07:14:10;101405.06;;;6.93;34.96
71697;BME280;68167;59.120;37.898;2023-04-08T07:16:37;101408.88;;;7.12;35.46
71697;BME280;68167;59.120;37.898;2023-04-08T07:19:03;101482.09;;;7.60;35.56
71697;BME280;68167;59.120;37.898;2023-04-08T07:21:29;101479.69;;;7.66;34.67
71697;BME280;68167;59.120;37.898;2023-04-08T07:23:56;101483.59;;;7.70;34.79
71697;BME280;68167;59.120;37.898;2023-04-08T07:26:23;101478.75;;;7.80;34.34
71697;BME280;68167;59.120;37.898;2023-04-08T07:28:49;101471.59;;;7.80;34.17
71697;BME280;68167;59.120;37.898;2023-04-08T07:31:17;101439.13;;;7.65;34.49
71697;BME280;68167;59.120;37.898;2023-04-08T07:33:44;101462.88;;;7.93;34.00
71697;BME280;68167;59.120;37.898;2023-04-08T07:36:12;101455.75;;;7.93;33.82
71697;BME280;68167;59.120;37.898;2023-04-08T07:38:39;101467.03;;;8.09;33.62
71697;BME280;68167;59.120;37.898;2023-04-08T07:41:05;101392.88;;;7.74;33.06
71697;BME280;68167;59.120;37.898;2023-04-08T07:43:32;101473.22;;;8.29;33.35
71697;BME280;68167;59.120;37.898;2023-04-08T07:46:05;101471.84;;;8.40;33.90
71697;BME280;68167;59.120;37.898;2023-04-08T07:48:32;101472.47;;;8.48;32.81
71697;BME280;68167;59.120;37.898;2023-04-08T07:51:04;101391.75;;;8.10;32.35
71697;BME280;68167;59.120;37.898;2023-04-08T07:53:31;101461.44;;;8.58;32.37
71697;BME280;68167;59.120;37.898;2023-04-08T07:55:58;101471.88;;;8.66;32.28
71697;BME280;68167;59.120;37.898;2023-04-08T07:58:25;101473.72;;;8.72;32.29
71697;BME280;68167;59.120;37.898;2023-04-08T08:00:52;101452.69;;;8.71;32.29
71697;BME280;68167;59.120;37.898;2023-04-08T08:03:18;101457.81;;;8.85;32.21
71697;BME280;68167;59.120;37.898;2023-04-08T08:05:45;101394.69;;;8.54;32.29
71697;BME280;68167;59.120;37.898;2023-04-08T08:08:11;101459.25;;;9.01;32.35
71697;BME280;68167;59.120;37.898;2023-04-08T08:10:38;101465.97;;;9.10;31.05
71697;BME280;68167;59.120;37.898;2023-04-08T08:13:05;101443.31;;;8.95;31.29
71697;BME280;68167;59.120;37.898;2023-04-08T08:15:32;101444.75;;;9.04;31.12
71697;BME280;68167;59.120;37.898;2023-04-08T08:17:58;101460.66;;;9.17;30.89
71697;BME280;68167;59.120;37.898;2023-04-08T08:20:25;101449.19;;;9.16;31.44
71697;BME280;68167;59.120;37.898;2023-04-08T08:22:55;101440.00;;;9.12;30.76
71697;BME280;68167;59.120;37.898;2023-04-08T08:25:24;101451.84;;;9.23;30.07
71697;BME280;68167;59.120;37.898;2023-04-08T08:27:51;101430.59;;;9.16;30.67
71697;BME280;68167;59.120;37.898;2023-04-08T08:30:17;101450.00;;;9.30;30.99
71697;BME280;68167;59.120;37.898;2023-04-08T08:32:46;101448.97;;;9.31;30.74
71697;BME280;68167;59.120;37.898;2023-04-08T08:35:17;101387.75;;;9.06;29.92
71697;BME280;68167;59.120;37.898;2023-04-08T08:37:44;101382.00;;;9.09;30.69
71697;BME280;68167;59.120;37.898;2023-04-08T08:40:10;101392.59;;;9.22;30.10
71697;BME280;68167;59.120;37.898;2023-04-08T08:42:38;101446.47;;;9.56;29.44
71697;BME280;68167;59.120;37.898;2023-04-08T08:45:05;101436.28;;;9.53;29.40
71697;BME280;68167;59.120;37.898;2023-04-08T08:47:33;101408.50;;;9.36;29.52
71697;BME280;68167;59.120;37.898;2023-04-08T08:49:59;101377.47;;;9.16;29.23
71697;BME280;68167;59.120;37.898;2023-04-08T08:52:26;101435.25;;;9.54;29.13
71697;BME280;68167;59.120;37.898;2023-04-08T08:54:58;101430.06;;;9.72;29.46
71697;BME280;68167;59.120;37.898;2023-04-08T08:57:25;101388.63;;;9.51;29.21
71697;BME280;68167;59.120;37.898;2023-04-08T08:59:52;101443.06;;;9.94;29.48
71697;BME280;68167;59.120;37.898;2023-04-08T09:02:27;101414.00;;;9.92;29.74
71697;BME280;68167;59.120;37.898;2023-04-08T09:05:02;101416.47;;;9.94;29.04
71697;BME280;68167;59.120;37.898;2023-04-08T09:07:31;101437.03;;;10.11;28.36
71697;BME280;68167;59.120;37.898;2023-04-08T09:10:00;101436.19;;;10.17;29.27
71697;BME280;68167;59.120;37.898;2023-04-08T09:12:27;101436.19;;;10.24;29.21
71697;BME280;68167;59.120;37.898;2023-04-08T09:15:06;101425.75;;;10.22;29.53
71697;BME280;68167;59.120;37.898;2023-04-08T09:17:35;101432.66;;;10.37;28.68
71697;BME280;68167;59.120;37.898;2023-04-08T09:20:10;101430.72;;;10.44;28.55
71697;BME280;68167;59.120;37.898;2023-04-08T09:25:32;101373.22;;;10.05;29.46
71697;BME280;68167;59.120;37.898;2023-04-08T09:27:59;101401.59;;;10.24;28.50
71697;BME280;68167;59.120;37.898;2023-04-08T09:30:27;101426.06;;;10.39;28.07
71697;BME280;68167;59.120;37.898;2023-04-08T09:32:55;101420.56;;;10.34;28.78
71697;BME280;68167;59.120;37.898;2023-04-08T09:35:23;101382.19;;;10.10;28.21
71697;BME280;68167;59.120;37.898;2023-04-08T09:37:49;101375.28;;;10.03;28.93
71697;BME280;68167;59.120;37.898;2023-04-08T09:40:16;101379.38;;;10.05;28.14
71697;BME280;68167;59.120;37.898;2023-04-08T09:42:45;101425.72;;;10.29;28.52
71697;BME280;68167;59.120;37.898;2023-04-08T09:45:15;101431.41;;;10.39;29.08
71697;BME280;68167;59.120;37.898;2023-04-08T09:47:55;101428.06;;;10.44;29.52
71697;BME280;68167;59.120;37.898;2023-04-08T09:50:27;101426.13;;;10.57;29.71
71697;BME280;68167;59.120;37.898;2023-04-08T09:53:00;101378.16;;;10.39;29.98
71697;BME280;68167;59.120;37.898;2023-04-08T09:55:34;101346.34;;;10.19;29.03
71697;BME280;68167;59.120;37.898;2023-04-08T09:58:15;101403.84;;;10.52;29.17
71697;BME280;68167;59.120;37.898;2023-04-08T10:00:46;101371.25;;;10.32;29.07
71697;BME280;68167;59.120;37.898;2023-04-08T10:05:54;101408.91;;;10.60;29.37
71697;BME280;68167;59.120;37.898;2023-04-08T10:08:25;101419.50;;;10.67;29.75
71697;BME280;68167;59.120;37.898;2023-04-08T10:10:53;101355.28;;;10.32;29.42
71697;BME280;68167;59.120;37.898;2023-04-08T10:13:20;101407.41;;;10.71;29.60
71697;BME280;68167;59.120;37.898;2023-04-08T10:15:47;101364.38;;;10.42;28.89
71697;BME280;68167;59.120;37.898;2023-04-08T10:20:44;101400.69;;;10.62;29.18
71697;BME280;68167;59.120;37.898;2023-04-08T10:23:16;101347.09;;;10.33;29.15
71697;BME280;68167;59.120;37.898;2023-04-08T10:25:44;101347.38;;;10.43;29.32
71697;BME280;68167;59.120;37.898;2023-04-08T10:30:57;101387.34;;;10.93;30.22
71697;BME280;68167;59.120;37.898;2023-04-08T10:33:32;101402.72;;;11.09;29.69
71697;BME280;68167;59.120;37.898;2023-04-08T10:36:11;101406.97;;;11.17;29.81
71697;BME280;68167;59.120;37.898;2023-04-08T10:38:40;101330.19;;;10.89;29.60
71697;BME280;68167;59.120;37.898;2023-04-08T10:41:10;101368.25;;;11.14;29.88
71697;BME280;68167;59.120;37.898;2023-04-08T10:43:39;101330.09;;;11.14;29.73
71697;BME280;68167;59.120;37.898;2023-04-08T10:46:05;101370.25;;;11.55;29.41
71697;BME280;68167;59.120;37.898;2023-04-08T10:48:31;101337.50;;;11.48;30.10
71697;BME280;68167;59.120;37.898;2023-04-08T10:51:01;101336.69;;;11.66;29.64
71697;BME280;68167;59.120;37.898;2023-04-08T10:53:32;101388.88;;;12.22;30.35
71697;BME280;68167;59.120;37.898;2023-04-08T10:58:33;101392.44;;;12.69;30.86
71697;BME280;68167;59.120;37.898;2023-04-08T11:01:04;101388.97;;;12.80;29.23
71697;BME280;68167;59.120;37.898;2023-04-08T11:03:35;101391.66;;;12.92;28.78
71697;BME280;68167;59.120;37.898;2023-04-08T11:06:02;101357.72;;;12.81;29.13
71697;BME280;68167;59.120;37.898;2023-04-08T11:08:29;101321.94;;;12.82;29.27
71697;BME280;68167;59.120;37.898;2023-04-08T11:10:57;101372.22;;;13.20;28.28
71697;BME280;68167;59.120;37.898;2023-04-08T11:13:26;101377.69;;;13.37;28.67
71697;BME280;68167;59.120;37.898;2023-04-08T11:15:57;101385.78;;;13.54;27.57
71697;BME280;68167;59.120;37.898;2023-04-08T11:18:24;101374.94;;;13.60;27.75
71697;BME280;68167;59.120;37.898;2023-04-08T11:20:52;101372.22;;;13.72;27.05
71697;BME280;68167;59.120;37.898;2023-04-08T11:23:19;101376.19;;;13.98;27.11
71697;BME280;68167;59.120;37.898;2023-04-08T11:25:46;101369.34;;;14.35;27.15
71697;BME280;68167;59.120;37.898;2023-04-08T11:28:13;101338.13;;;14.58;27.21
71697;BME280;68167;59.120;37.898;2023-04-08T11:30:40;101378.81;;;14.88;26.75
71697;BME280;68167;59.120;37.898;2023-04-08T11:33:07;101346.63;;;14.88;26.04
71697;BME280;68167;59.120;37.898;2023-04-08T11:35:33;101358.69;;;15.29;25.48
71697;BME280;68167;59.120;37.898;2023-04-08T11:38:01;101310.06;;;15.04;25.97
71697;BME280;68167;59.120;37.898;2023-04-08T11:40:29;101349.41;;;15.37;26.13
71697;BME280;68167;59.120;37.898;2023-04-08T11:42:56;101358.38;;;15.69;26.66
71697;BME280;68167;59.120;37.898;2023-04-08T11:45:22;101347.94;;;15.73;25.25
71697;BME280;68167;59.120;37.898;2023-04-08T11:47:48;101349.22;;;15.92;25.43
71697;BME280;68167;59.120;37.898;2023-04-08T11:50:22;101349.66;;;16.06;25.95
71697;BME280;68167;59.120;37.898;2023-04-08T11:52:51;101313.00;;;15.95;24.47
71697;BME280;68167;59.120;37.898;2023-04-08T11:55:35;101241.44;;;15.30;25.61
71697;BME280;68167;59.120;37.898;2023-04-08T11:58:03;101340.56;;;15.85;24.89
71697;BME280;68167;59.120;37.898;2023-04-08T12:00:31;101284.91;;;15.54;25.16
71697;BME280;68167;59.120;37.898;2023-04-08T12:02:58;101354.59;;;15.92;25.01
71697;BME280;68167;59.120;37.898;2023-04-08T12:05:24;101296.63;;;15.69;24.90
71697;BME280;68167;59.120;37.898;2023-04-08T12:07:50;101343.19;;;16.07;24.77
71697;BME280;68167;59.120;37.898;2023-04-08T12:10:17;101337.84;;;16.07;24.64
71697;BME280;68167;59.120;37.898;2023-04-08T12:12:43;101338.84;;;16.01;23.99
71697;BME280;68167;59.120;37.898;2023-04-08T12:15:10;101280.44;;;15.59;24.00
71697;BME280;68167;59.120;37.898;2023-04-08T12:17:36;101322.78;;;15.79;23.73
71697;BME280;68167;59.120;37.898;2023-04-08T12:20:06;101266.09;;;15.05;24.11
71697;BME280;68167;59.120;37.898;2023-04-08T12:22:32;101273.84;;;15.01;24.46
71697;BME280;68167;59.120;37.898;2023-04-08T12:24:59;101274.34;;;14.98;24.04
71697;BME280;68167;59.120;37.898;2023-04-08T12:27:25;101310.03;;;15.21;23.91
71697;BME280;68167;59.120;37.898;2023-04-08T12:29:51;101325.50;;;15.35;24.64
71697;BME280;68167;59.120;37.898;2023-04-08T12:32:18;101312.84;;;15.31;24.31
71697;BME280;68167;59.120;37.898;2023-04-08T12:34:44;101320.81;;;15.26;23.66
71697;BME280;68167;59.120;37.898;2023-04-08T12:37:11;101296.75;;;14.87;23.66
71697;BME280;68167;59.120;37.898;2023-04-08T12:39:37;101247.50;;;14.55;24.25
71697;BME280;68167;59.120;37.898;2023-04-08T12:42:04;101291.69;;;14.91;24.36
71697;BME280;68167;59.120;37.898;2023-04-08T12:44:30;101306.09;;;15.28;24.29
71697;BME280;68167;59.120;37.898;2023-04-08T12:46:56;101298.09;;;15.55;24.33
71697;BME280;68167;59.120;37.898;2023-04-08T12:49:26;101237.31;;;15.44;24.11
71697;BME280;68167;59.120;37.898;2023-04-08T12:51:52;101238.59;;;15.63;24.00
71697;BME280;68167;59.120;37.898;2023-04-08T12:54:19;101254.69;;;15.90;23.83
71697;BME280;68167;59.120;37.898;2023-04-08T12:56:46;101228.28;;;15.82;23.20
71697;BME280;68167;59.120;37.898;2023-04-08T12:59:14;101254.84;;;16.10;23.50
71697;BME280;68167;59.120;37.898;2023-04-08T13:01:41;101224.19;;;16.06;23.78
71697;BME280;68167;59.120;37.898;2023-04-08T13:04:07;101237.03;;;16.41;23.20
71697;BME280;68167;59.120;37.898;2023-04-08T13:06:34;101226.94;;;16.59;23.41
71697;BME280;68167;59.120;37.898;2023-04-08T13:09:00;101274.75;;;16.99;22.56
71697;BME280;68167;59.120;37.898;2023-04-08T13:11:27;101268.59;;;17.08;22.52
71697;BME280;68167;59.120;37.898;2023-04-08T13:13:53;101248.97;;;17.08;22.60
71697;BME280;68167;59.120;37.898;2023-04-08T13:16:19;101203.22;;;17.08;22.85